createdAt,value
2023-01-23T00:01:32.167Z,25.80
2023-01-23T00:04:00.739Z,24.13
2023-01-23T00:06:28.745Z,27.20
2023-01-23T00:08:56.876Z,22.87
2023-01-23T00:11:30.281Z,23.20
2023-01-23T00:13:59.458Z,26.80
2023-01-23T00:16:30.403Z,28.43
2023-01-23T00:18:58.543Z,27.40
2023-01-23T00:21:28.504Z,25.37
2023-01-23T00:23:58.272Z,33.70
2023-01-23T00:26:30.056Z,23.10
2023-01-23T00:28:57.417Z,25.10
2023-01-23T00:31:30.753Z,25.93
2023-01-23T00:34:01.337Z,25.07
2023-01-23T00:36:31.776Z,25.57
2023-01-23T00:38:59.079Z,24.10
2023-01-23T00:41:26.828Z,24.13
2023-01-23T00:43:54.325Z,25.90
2023-01-23T00:46:22.363Z,24.43
2023-01-23T00:48:49.686Z,24.90
2023-01-23T00:51:17.195Z,28.80
2023-01-23T00:53:45.081Z,28.93
2023-01-23T00:56:12.378Z,24.83
2023-01-23T00:58:40.557Z,24.27
2023-01-23T01:01:08.896Z,29.97
2023-01-23T01:03:36.578Z,24.73
2023-01-23T01:06:04.161Z,24.03
2023-01-23T01:08:31.863Z,27.87
2023-01-23T01:10:59.213Z,24.67
2023-01-23T01:13:26.839Z,27.03
2023-01-23T01:15:54.563Z,25.07
2023-01-23T01:18:22.734Z,25.70
2023-01-23T01:20:51.568Z,27.40
2023-01-23T01:23:19.528Z,24.27
2023-01-23T01:25:47.403Z,26.37
2023-01-23T01:28:15.141Z,27.73
2023-01-23T01:30:42.490Z,25.13
2023-01-23T01:33:11.124Z,28.30
2023-01-23T01:35:41.298Z,23.83
2023-01-23T01:38:09.399Z,28.03
2023-01-23T01:40:37.953Z,27.63
2023-01-23T01:43:15.728Z,27.40
2023-01-23T01:46:18.597Z,28.43
2023-01-23T01:48:55.407Z,26.87
2023-01-23T01:51:45.677Z,25.37
2023-01-23T01:54:43.697Z,25.60
2023-01-23T01:57:27.490Z,24.77
2023-01-23T02:00:01.764Z,25.27
2023-01-23T02:02:36.001Z,35.00
2023-01-23T02:05:31.674Z,24.17
2023-01-23T02:08:32.723Z,22.80
2023-01-23T02:11:03.357Z,27.50
2023-01-23T02:13:36.934Z,28.70
2023-01-23T02:16:20.040Z,26.63
2023-01-23T02:18:53.918Z,19.17
2023-01-23T02:21:25.443Z,23.67
2023-01-23T02:24:00.193Z,20.63
2023-01-23T02:26:32.992Z,25.23
2023-01-23T02:29:00.359Z,22.10
2023-01-23T02:31:32.831Z,22.17
2023-01-23T02:34:00.775Z,22.03
2023-01-23T02:36:33.203Z,19.40
2023-01-23T02:39:13.670Z,25.53
2023-01-23T02:41:47.216Z,22.93
2023-01-23T02:44:26.980Z,23.40
2023-01-23T02:47:05.643Z,20.13
2023-01-23T02:49:33.196Z,22.37
2023-01-23T02:52:05.828Z,22.53
2023-01-23T02:54:33.467Z,21.77
2023-01-23T02:57:02.178Z,24.17
2023-01-23T02:59:49.448Z,23.70
2023-01-23T03:02:17.370Z,26.07
2023-01-23T03:04:44.569Z,24.17
2023-01-23T03:07:11.642Z,19.93
2023-01-23T03:09:39.592Z,21.90
2023-01-23T03:12:09.133Z,23.23
2023-01-23T03:14:37.554Z,21.67
2023-01-23T03:17:04.681Z,24.60
2023-01-23T03:19:35.492Z,25.10
2023-01-23T03:22:02.706Z,23.90
2023-01-23T03:24:29.777Z,26.00
2023-01-23T03:26:56.926Z,22.73
2023-01-23T03:29:45.433Z,25.60
2023-01-23T03:32:16.033Z,25.93
2023-01-23T03:34:44.902Z,23.23
2023-01-23T03:37:13.619Z,22.57
2023-01-23T03:40:04.006Z,24.57
2023-01-23T03:42:34.855Z,20.93
2023-01-23T03:45:04.412Z,23.93
2023-01-23T03:47:34.890Z,23.97
2023-01-23T03:50:02.253Z,23.97
2023-01-23T03:52:35.120Z,22.63
2023-01-23T03:55:02.151Z,21.07
2023-01-23T03:57:29.290Z,24.53
2023-01-23T03:59:58.931Z,23.03
2023-01-23T04:02:29.677Z,19.57
2023-01-23T04:04:56.801Z,21.40
2023-01-23T04:07:23.963Z,25.23
2023-01-23T04:09:51.192Z,24.90
2023-01-23T04:12:18.505Z,24.53
2023-01-23T04:14:48.923Z,20.87
2023-01-23T04:17:16.371Z,24.77
2023-01-23T04:19:43.516Z,20.23
2023-01-23T04:22:10.752Z,24.30
2023-01-23T04:24:43.757Z,20.60
2023-01-23T04:27:10.918Z,21.97
2023-01-23T04:29:38.113Z,20.60
2023-01-23T04:32:05.516Z,25.83
2023-01-23T04:34:35.776Z,24.17
2023-01-23T04:37:02.852Z,22.27
2023-01-23T04:39:32.328Z,25.43
2023-01-23T04:41:59.844Z,25.70
2023-01-23T04:44:45.838Z,24.33
2023-01-23T04:47:31.368Z,22.83
2023-01-23T04:49:59.372Z,24.30
2023-01-23T04:52:28.595Z,25.20
2023-01-23T04:54:58.375Z,21.70
2023-01-23T04:57:26.387Z,19.93
2023-01-23T05:00:23.584Z,26.83
2023-01-23T05:02:51.704Z,21.70
2023-01-23T05:05:21.239Z,23.37
2023-01-23T05:07:51.909Z,22.37
2023-01-23T05:10:19.795Z,24.57
2023-01-23T05:12:48.455Z,23.20
2023-01-23T05:15:17.277Z,22.17
2023-01-23T05:17:46.712Z,25.53
2023-01-23T05:20:14.337Z,21.80
2023-01-23T05:22:52.620Z,25.33
2023-01-23T05:25:28.543Z,26.30
2023-01-23T05:27:57.385Z,22.73
2023-01-23T05:30:25.749Z,27.37
2023-01-23T05:33:01.317Z,21.07
2023-01-23T05:35:28.437Z,23.03
2023-01-23T05:37:55.642Z,22.50
2023-01-23T05:40:25.212Z,22.83
2023-01-23T05:43:21.686Z,20.03
2023-01-23T05:46:03.808Z,23.60
2023-01-23T05:48:40.236Z,20.83
2023-01-23T05:51:10.600Z,23.47
2023-01-23T05:53:37.927Z,25.90
2023-01-23T05:56:09.238Z,25.30
2023-01-23T05:58:54.165Z,26.23
2023-01-23T06:01:28.731Z,26.17
2023-01-23T06:04:19.200Z,22.40
2023-01-23T06:06:56.699Z,28.37
2023-01-23T06:09:24.206Z,29.33
2023-01-23T06:11:51.354Z,29.50
2023-01-23T06:14:19.164Z,30.67
2023-01-23T06:16:46.566Z,28.30
2023-01-23T06:19:13.734Z,25.97
2023-01-23T06:21:41.171Z,31.00
2023-01-23T06:24:09.353Z,25.20
2023-01-23T06:26:36.414Z,23.67
2023-01-23T06:29:04.289Z,26.70
2023-01-23T06:31:32.639Z,26.43
2023-01-23T06:34:02.111Z,30.17
2023-01-23T06:36:34.193Z,28.37
2023-01-23T06:39:01.440Z,36.77
2023-01-23T06:41:35.942Z,34.93
2023-01-23T06:44:06.498Z,31.73
2023-01-23T06:46:34.497Z,30.23
2023-01-23T06:49:03.925Z,35.30
2023-01-23T06:51:34.786Z,38.10
2023-01-23T06:54:02.300Z,38.93
2023-01-23T06:56:30.165Z,36.77
2023-01-23T06:58:57.304Z,39.20
2023-01-23T07:01:31.119Z,39.77
2023-01-23T07:04:17.157Z,295.87
2023-01-23T07:06:45.346Z,44.83
2023-01-23T07:09:15.399Z,39.70
2023-01-23T07:11:46.734Z,35.67
2023-01-23T07:14:13.878Z,30.90
2023-01-23T07:16:42.076Z,31.00
2023-01-23T07:19:09.517Z,33.27
2023-01-23T07:21:39.280Z,34.57
2023-01-23T07:24:06.904Z,36.40
2023-01-23T07:26:34.026Z,34.83
2023-01-23T07:29:01.123Z,39.37
2023-01-23T07:31:28.286Z,32.50
2023-01-23T07:33:55.372Z,32.97
2023-01-23T07:36:22.393Z,34.20
2023-01-23T07:38:49.442Z,33.47
2023-01-23T07:41:16.458Z,30.20
2023-01-23T07:43:43.562Z,38.13
2023-01-23T07:46:10.672Z,35.70
2023-01-23T07:48:38.424Z,36.27
2023-01-23T07:51:05.951Z,36.77
2023-01-23T07:53:33.720Z,41.30
2023-01-23T07:56:05.396Z,32.87
2023-01-23T07:58:33.314Z,31.33
2023-01-23T08:01:07.936Z,35.47
2023-01-23T08:03:35.037Z,37.70
2023-01-23T08:06:02.128Z,30.43
2023-01-23T08:08:29.941Z,36.33
2023-01-23T08:10:57.047Z,35.90
2023-01-23T08:13:24.346Z,34.67
2023-01-23T08:15:53.567Z,38.07
2023-01-23T08:18:21.400Z,32.50
2023-01-23T08:20:57.154Z,32.67
2023-01-23T08:23:30.503Z,40.07
2023-01-23T08:26:01.035Z,34.47
2023-01-23T08:28:28.365Z,41.03
2023-01-23T08:30:56.064Z,33.47
2023-01-23T08:33:23.181Z,37.07
2023-01-23T08:35:56.864Z,36.70
2023-01-23T08:38:25.025Z,35.47
2023-01-23T08:40:53.959Z,32.90
2023-01-23T08:43:21.745Z,35.67
2023-01-23T08:45:55.189Z,34.93
2023-01-23T08:48:25.036Z,38.30
2023-01-23T08:51:00.422Z,34.63
2023-01-23T08:53:28.248Z,32.50
2023-01-23T08:56:04.823Z,40.97
2023-01-23T08:58:32.171Z,36.07
2023-01-23T09:00:59.885Z,33.23
2023-01-23T09:03:28.585Z,30.37
2023-01-23T09:05:55.652Z,34.47
2023-01-23T09:08:22.769Z,38.90
2023-01-23T09:10:49.937Z,35.50
2023-01-23T09:13:17.316Z,37.90
2023-01-23T09:15:44.377Z,34.57
2023-01-23T09:18:11.415Z,38.43
2023-01-23T09:20:39.177Z,34.10
2023-01-23T09:23:06.306Z,38.43
2023-01-23T09:25:33.497Z,37.47
2023-01-23T09:28:00.590Z,36.70
2023-01-23T09:30:27.722Z,34.23
2023-01-23T09:32:54.927Z,38.53
2023-01-23T09:35:23.468Z,38.73
2023-01-23T09:38:00.265Z,36.67
2023-01-23T09:40:48.658Z,35.20
2023-01-23T09:43:59.760Z,37.43
2023-01-23T09:46:52.109Z,31.90
2023-01-23T09:49:25.381Z,36.70
2023-01-23T09:52:08.267Z,35.53
2023-01-23T09:54:43.169Z,36.93
2023-01-23T09:57:39.595Z,32.33
2023-01-23T10:00:31.850Z,31.30
2023-01-23T10:03:02.617Z,33.60
2023-01-23T10:05:54.358Z,36.33
2023-01-23T10:09:18.128Z,40.33
2023-01-23T10:11:59.593Z,36.37
2023-01-23T10:15:01.256Z,34.73
2023-01-23T10:17:45.353Z,40.30
2023-01-23T10:20:45.802Z,32.83
2023-01-23T10:23:37.167Z,36.63
2023-01-23T10:26:04.869Z,37.13
2023-01-23T10:28:39.442Z,34.50
2023-01-23T10:31:26.506Z,36.20
2023-01-23T10:34:17.508Z,35.93
2023-01-23T10:37:07.684Z,32.17
2023-01-23T10:39:51.187Z,35.90
2023-01-23T10:42:23.752Z,34.13
2023-01-23T10:44:51.040Z,34.57
2023-01-23T10:47:55.186Z,30.00
2023-01-23T10:50:37.097Z,29.23
2023-01-23T10:53:21.050Z,31.63
2023-01-23T10:55:51.042Z,31.10
2023-01-23T10:58:38.796Z,39.13
2023-01-23T11:01:18.575Z,33.43
2023-01-23T11:03:46.368Z,28.83
2023-01-23T11:06:21.931Z,28.27
2023-01-23T11:09:20.971Z,29.40
2023-01-23T11:12:02.101Z,24.90
2023-01-23T11:14:29.327Z,36.33
2023-01-23T11:17:32.815Z,31.67
2023-01-23T11:20:11.240Z,33.03
2023-01-23T11:22:43.354Z,29.07
2023-01-23T11:25:48.655Z,29.97
2023-01-23T11:28:34.744Z,24.60
2023-01-23T11:31:32.222Z,28.80
2023-01-23T11:34:13.289Z,31.93
2023-01-23T11:37:19.445Z,28.43
2023-01-23T11:40:17.186Z,34.13
2023-01-23T11:42:45.298Z,32.07
2023-01-23T11:46:07.899Z,28.77
2023-01-23T11:49:27.677Z,31.03
2023-01-23T11:52:32.447Z,28.27
2023-01-23T11:55:14.475Z,34.80
2023-01-23T11:58:37.185Z,35.77
2023-01-23T12:01:38.324Z,32.47
2023-01-23T12:04:40.288Z,33.77
2023-01-23T12:07:21.624Z,34.77
2023-01-23T12:10:10.821Z,32.40
2023-01-23T12:13:05.001Z,32.57
2023-01-23T12:15:43.345Z,33.97
2023-01-23T12:18:59.584Z,29.90
2023-01-23T12:21:54.868Z,31.53
2023-01-23T12:25:05.802Z,30.47
2023-01-23T12:27:57.795Z,31.87
2023-01-23T12:31:00.508Z,36.13
2023-01-23T12:33:46.848Z,35.90
2023-01-23T12:37:08.183Z,32.50
2023-01-23T12:39:50.238Z,35.17
2023-01-23T12:43:16.151Z,37.20
2023-01-23T12:45:59.667Z,41.80
2023-01-23T12:48:35.378Z,38.30
2023-01-23T12:51:25.548Z,34.87
2023-01-23T12:53:57.456Z,34.70
2023-01-23T12:56:33.431Z,35.73
2023-01-23T12:59:37.221Z,34.70
2023-01-23T13:02:16.266Z,34.50
2023-01-23T13:05:24.632Z,46.10
2023-01-23T13:08:09.654Z,34.30
2023-01-23T13:11:13.876Z,40.83
2023-01-23T13:13:42.179Z,40.23
2023-01-23T13:16:17.632Z,38.10
2023-01-23T13:19:16.460Z,39.23
2023-01-23T13:22:31.400Z,38.20
2023-01-23T13:25:18.426Z,38.20
2023-01-23T13:28:44.547Z,38.30
2023-01-23T13:31:50.343Z,44.73
2023-01-23T13:34:17.691Z,42.87
2023-01-23T13:36:50.159Z,42.13
2023-01-23T13:39:17.430Z,38.70
2023-01-23T13:41:53.312Z,43.67
2023-01-23T13:44:40.188Z,43.97
2023-01-23T14:25:38.505Z,62.97
2023-01-23T14:30:59.801Z,63.27
2023-01-23T14:33:28.181Z,67.33
2023-01-23T14:35:58.983Z,61.70
2023-01-23T14:38:33.938Z,62.13
2023-01-23T14:41:07.918Z,65.50
2023-01-23T14:43:36.695Z,63.30
2023-01-23T14:46:32.644Z,64.27
2023-01-23T14:49:03.667Z,70.57
2023-01-23T14:51:30.809Z,74.90
2023-01-23T14:54:18.143Z,70.87
2023-01-23T14:56:47.840Z,72.17
2023-01-23T14:59:35.922Z,62.57
2023-01-23T15:02:33.543Z,66.10
2023-01-23T15:05:28.259Z,67.30
2023-01-23T15:07:59.264Z,61.20
2023-01-23T15:10:45.195Z,68.40
2023-01-23T15:13:40.524Z,68.40
2023-01-23T15:16:19.579Z,70.40
2023-01-23T15:19:01.532Z,73.43
2023-01-23T15:21:42.245Z,67.30
2023-01-23T15:24:12.319Z,69.93
2023-01-23T15:27:05.789Z,66.80
2023-01-23T15:29:34.089Z,69.87
2023-01-23T15:32:02.465Z,66.07
2023-01-23T15:34:33.289Z,78.63
2023-01-23T15:37:12.697Z,66.87
2023-01-23T15:39:51.029Z,71.07
2023-01-23T15:42:18.060Z,71.23
2023-01-23T15:44:45.697Z,76.70
2023-01-23T15:47:12.893Z,75.23
2023-01-23T15:49:40.688Z,71.30
2023-01-23T15:52:30.466Z,76.87
2023-01-23T15:55:01.443Z,67.33
2023-01-23T15:57:28.655Z,61.13
2023-01-23T15:59:55.866Z,71.40
2023-01-23T16:02:31.079Z,72.80
2023-01-23T16:04:59.370Z,75.67
2023-01-23T16:07:39.876Z,66.37
2023-01-23T16:10:19.874Z,71.73
2023-01-23T16:12:49.835Z,68.40
2023-01-23T16:15:28.819Z,67.07
2023-01-23T16:17:57.239Z,72.40
2023-01-23T16:20:38.569Z,68.20
2023-01-23T16:23:20.471Z,68.77
2023-01-23T16:25:48.385Z,71.67
2023-01-23T16:28:22.356Z,75.47
2023-01-23T16:30:53.791Z,78.90
2023-01-23T16:33:24.001Z,64.13
2023-01-23T16:35:51.900Z,64.67
2023-01-23T16:38:26.533Z,67.13
2023-01-23T16:40:55.050Z,72.27
2023-01-23T16:43:23.078Z,74.97
2023-01-23T16:45:54.284Z,69.40
2023-01-23T16:48:28.362Z,77.50
2023-01-23T16:51:14.695Z,75.63
2023-01-23T16:53:44.658Z,72.03
2023-01-23T16:56:22.697Z,73.37
2023-01-23T16:58:50.427Z,71.23
2023-01-23T17:01:23.303Z,67.17
2023-01-23T17:04:01.122Z,74.73
2023-01-23T17:06:28.388Z,78.27
2023-01-23T17:08:56.673Z,68.50
2023-01-23T17:11:36.873Z,67.90
2023-01-23T17:14:26.968Z,72.30
2023-01-23T17:17:08.920Z,64.37
2023-01-23T17:19:40.286Z,60.80
2023-01-23T17:22:18.962Z,61.73
2023-01-23T17:24:46.055Z,64.40
2023-01-23T17:27:13.153Z,63.67
2023-01-23T17:29:40.222Z,54.80
2023-01-23T17:32:29.704Z,67.33
2023-01-23T17:34:58.274Z,56.00
2023-01-23T17:37:25.465Z,59.67
2023-01-23T17:39:53.717Z,54.93
2023-01-23T17:42:23.090Z,57.67
2023-01-23T17:44:50.580Z,55.87
2023-01-23T17:47:18.156Z,52.03
2023-01-23T17:49:57.186Z,62.60
2023-01-23T17:52:25.139Z,59.77
2023-01-23T17:54:52.954Z,60.43
2023-01-23T17:57:20.033Z,55.03
2023-01-23T17:59:47.253Z,68.70
2023-01-23T18:02:26.363Z,59.73
2023-01-23T18:04:54.076Z,58.20
2023-01-23T18:07:21.250Z,70.13
2023-01-23T18:09:48.364Z,57.70
2023-01-23T18:12:40.472Z,44.80
2023-01-23T18:15:12.441Z,54.03
2023-01-23T18:18:03.272Z,47.70
2023-01-23T18:20:33.299Z,83.47
2023-01-23T18:23:00.968Z,71.30
2023-01-23T18:25:31.049Z,98.43
2023-01-23T18:28:06.472Z,70.87
2023-01-23T18:31:03.446Z,59.93
2023-01-23T18:34:12.637Z,65.03
2023-01-23T18:37:10.897Z,61.80
2023-01-23T18:39:52.553Z,53.50
2023-01-23T18:42:32.423Z,65.03
2023-01-23T18:45:07.217Z,59.33
2023-01-23T18:47:34.598Z,50.30
2023-01-23T18:50:02.114Z,55.30
2023-01-23T18:52:54.011Z,53.43
2023-01-23T18:55:26.565Z,58.40
2023-01-23T18:58:24.691Z,51.27
2023-01-23T19:00:57.426Z,57.90
2023-01-23T19:03:39.929Z,44.93
2023-01-23T19:06:15.927Z,53.07
2023-01-23T19:08:43.524Z,53.33
2023-01-23T19:11:50.620Z,48.33
2023-01-23T19:15:07.923Z,47.80
2023-01-23T19:17:54.814Z,56.57
2023-01-23T19:20:48.235Z,59.90
2023-01-23T19:23:42.532Z,49.07
2023-01-23T19:26:14.432Z,61.13
2023-01-23T19:28:41.970Z,59.43
2023-01-23T19:31:24.614Z,60.50
2023-01-23T19:33:52.481Z,49.13
2023-01-23T19:36:20.975Z,56.70
2023-01-23T19:38:48.319Z,57.13
2023-01-23T19:41:25.121Z,57.23
2023-01-23T19:43:58.255Z,64.53
2023-01-23T19:46:30.291Z,57.73
2023-01-23T19:48:57.937Z,60.57
2023-01-23T19:51:27.760Z,57.23
2023-01-23T19:53:55.356Z,66.20
2023-01-23T19:56:22.767Z,61.47
2023-01-23T19:58:50.183Z,54.77
2023-01-23T20:01:43.624Z,67.40
2023-01-23T20:04:22.061Z,59.73
2023-01-23T20:06:52.324Z,59.00
2023-01-23T20:09:20.467Z,59.27
2023-01-23T20:11:48.298Z,65.83
2023-01-23T20:14:15.870Z,58.77
2023-01-23T20:16:43.444Z,68.90
2023-01-23T20:19:16.417Z,83.73
2023-01-23T20:21:44.219Z,74.57
2023-01-23T20:24:11.897Z,72.77
2023-01-23T20:26:40.303Z,63.17
2023-01-23T20:29:12.512Z,60.03
2023-01-23T20:31:39.707Z,66.73
2023-01-23T20:34:07.396Z,75.47
2023-01-23T20:36:34.503Z,65.13
2023-01-23T20:39:01.853Z,55.93
2023-01-23T20:41:29.098Z,68.30
2023-01-23T20:43:56.345Z,60.70
2023-01-23T20:46:23.552Z,64.93
2023-01-23T20:48:50.632Z,68.73
2023-01-23T20:51:17.970Z,63.43
2023-01-23T20:53:45.896Z,58.37
2023-01-23T20:56:19.182Z,63.60
2023-01-23T20:59:08.026Z,66.07
2023-01-23T21:01:57.196Z,65.00
2023-01-23T21:04:29.307Z,65.40
2023-01-23T21:06:57.164Z,74.50
2023-01-23T21:09:24.493Z,58.80
2023-01-23T21:11:53.319Z,66.77
2023-01-23T21:14:22.542Z,73.63
2023-01-23T21:16:49.843Z,70.63
2023-01-23T21:19:17.398Z,69.40
2023-01-23T21:21:44.617Z,73.70
2023-01-23T21:24:12.798Z,75.03
2023-01-23T21:26:40.383Z,69.93
2023-01-23T21:29:08.506Z,75.10
2023-01-23T21:31:39.338Z,71.37
2023-01-23T21:34:10.669Z,60.63
2023-01-23T21:36:38.622Z,79.20
2023-01-23T21:39:09.256Z,64.63
2023-01-23T21:41:37.382Z,72.60
2023-01-23T21:44:04.490Z,71.77
2023-01-23T21:46:31.771Z,76.60
2023-01-23T21:48:59.063Z,68.90
2023-01-23T21:51:27.722Z,73.73
2023-01-23T21:53:54.992Z,73.17
2023-01-23T21:56:23.631Z,77.63
2023-01-23T21:58:51.054Z,72.10
2023-01-23T22:01:39.632Z,78.83
2023-01-23T22:04:14.345Z,71.10
2023-01-23T22:06:43.759Z,87.13
2023-01-23T22:09:17.209Z,76.37
2023-01-23T22:11:47.398Z,76.43
2023-01-23T22:14:17.187Z,77.63
2023-01-23T22:16:49.183Z,77.00
2023-01-23T22:19:24.171Z,66.63
2023-01-23T22:21:53.382Z,68.37
2023-01-23T22:24:20.521Z,73.17
2023-01-23T22:26:47.893Z,77.53
2023-01-23T22:29:15.213Z,77.13
2023-01-23T22:31:42.870Z,74.60
2023-01-23T22:34:10.606Z,74.53
2023-01-23T22:36:37.879Z,74.90
2023-01-23T22:39:05.090Z,89.17
2023-01-23T22:41:32.636Z,78.00
2023-01-23T22:43:59.839Z,76.83
2023-01-23T22:46:28.334Z,78.57
2023-01-23T22:48:55.463Z,85.57
2023-01-23T22:51:26.586Z,83.77
2023-01-23T22:53:54.940Z,78.00
2023-01-23T22:56:23.218Z,78.93
2023-01-23T22:58:53.100Z,82.07
2023-01-23T23:01:23.415Z,78.03
2023-01-23T23:03:51.205Z,79.87
2023-01-23T23:06:19.721Z,78.37
2023-01-23T23:08:48.086Z,70.03
2023-01-23T23:11:23.401Z,82.03
2023-01-23T23:13:51.022Z,76.37
2023-01-23T23:16:31.603Z,77.80
2023-01-23T23:19:02.270Z,81.93
2023-01-23T23:21:33.867Z,75.57
2023-01-23T23:24:01.721Z,77.00
2023-01-23T23:26:31.419Z,93.37
2023-01-23T23:29:01.905Z,74.63
2023-01-23T23:31:29.467Z,76.53
2023-01-23T23:33:57.070Z,77.80
2023-01-23T23:36:24.529Z,81.47
2023-01-23T23:38:51.734Z,84.53
2023-01-23T23:41:19.065Z,69.87
2023-01-23T23:43:46.337Z,87.67
2023-01-23T23:46:15.181Z,83.00
2023-01-23T23:48:43.817Z,84.50
2023-01-23T23:51:15.833Z,82.97
2023-01-23T23:53:43.202Z,78.23
2023-01-23T23:56:19.217Z,84.03
2023-01-23T23:58:46.288Z,77.90
